createdAt,value
2019-02-16T00:03:33.967Z,101774.75
2019-02-16T00:08:49.781Z,101775.70
2019-02-16T00:11:37.400Z,101772.61
2019-02-16T00:14:05.780Z,101772.25
2019-02-16T00:16:34.147Z,101776.88
2019-02-16T00:21:36.695Z,101767.31
2019-02-16T00:24:24.197Z,101768.15
2019-02-16T00:26:52.557Z,101768.86
2019-02-16T00:29:20.938Z,101763.17
2019-02-16T00:31:49.307Z,101764.81
2019-02-16T00:34:36.932Z,101757.34
2019-02-16T00:37:24.421Z,101753.13
2019-02-16T00:39:52.798Z,101747.83
2019-02-16T00:42:40.505Z,101742.72
2019-02-16T00:45:28.005Z,101737.47
2019-02-16T00:48:15.786Z,101740.81
2019-02-16T00:50:44.158Z,101735.93
2019-02-16T00:53:52.449Z,101733.02
2019-02-16T00:56:40.183Z,101736.02
2019-02-16T00:59:08.563Z,101726.44
2019-02-16T01:04:24.378Z,101724.70
2019-02-16T01:06:52.766Z,101721.56
2019-02-16T01:09:40.373Z,101718.20
2019-02-16T01:12:08.764Z,101715.59
2019-02-16T01:14:37.128Z,101708.61
2019-02-16T01:17:24.745Z,101715.12
2019-02-16T01:19:53.126Z,101717.36
2019-02-16T01:23:01.417Z,101714.86
2019-02-16T01:25:49.043Z,101719.25
2019-02-16T01:28:17.431Z,101711.58
2019-02-16T01:31:05.052Z,101710.78
2019-02-16T01:33:52.677Z,101705.53
2019-02-16T01:36:21.046Z,101703.31
2019-02-16T01:38:49.426Z,101702.66
2019-02-16T01:44:45.154Z,101697.57
2019-02-16T01:47:13.521Z,101698.58
2019-02-16T01:50:21.822Z,101689.52
2019-02-16T01:53:09.313Z,101686.13
2019-02-16T01:55:37.691Z,101674.84
2019-02-16T01:58:25.310Z,101674.54
2019-02-16T02:01:12.938Z,101670.23
2019-02-16T02:04:00.439Z,101669.08
2019-02-16T02:11:41.858Z,101666.36
2019-02-16T02:14:10.227Z,101658.02
2019-02-16T02:16:38.611Z,101654.48
2019-02-16T02:19:06.978Z,101648.47
2019-02-16T02:21:54.474Z,101647.13
2019-02-16T02:24:22.875Z,101640.72
2019-02-16T02:27:10.422Z,101634.49
2019-02-16T02:29:58.048Z,101635.25
2019-02-16T02:32:26.430Z,101639.53
2019-02-16T02:35:14.044Z,101631.00
2019-02-16T02:37:42.420Z,101634.38
2019-02-16T02:40:10.803Z,101627.40
2019-02-16T02:42:39.178Z,101625.27
2019-02-16T02:45:47.497Z,101635.27
2019-02-16T02:48:15.845Z,101624.00
2019-02-16T02:51:05.005Z,101625.89
2019-02-16T02:53:33.374Z,101623.27
2019-02-16T02:56:20.871Z,101625.20
2019-02-16T02:59:08.578Z,101626.97
2019-02-16T03:01:36.961Z,101625.74
2019-02-16T03:04:05.329Z,101618.73
2019-02-16T03:06:52.958Z,101614.52
2019-02-16T03:09:21.328Z,101619.19
2019-02-16T03:14:23.993Z,101615.05
2019-02-16T03:17:11.708Z,101614.13
2019-02-16T03:19:40.078Z,101612.23
2019-02-16T03:22:08.464Z,101610.44
2019-02-16T03:24:36.840Z,101604.91
2019-02-16T03:27:43.798Z,101609.41
2019-02-16T03:30:52.162Z,101606.99
2019-02-16T03:34:00.453Z,101602.81
2019-02-16T03:37:08.753Z,101601.61
2019-02-16T03:40:17.030Z,101600.42
2019-02-16T03:42:45.421Z,101593.04
2019-02-16T03:45:13.860Z,101594.75
2019-02-16T03:48:01.288Z,101586.72
2019-02-16T03:50:29.653Z,101584.95
2019-02-16T03:52:58.046Z,101591.77
2019-02-16T03:55:45.670Z,101596.95
2019-02-16T03:58:33.297Z,101590.99
2019-02-16T04:01:20.930Z,101577.03
2019-02-16T04:03:49.306Z,101586.88
2019-02-16T04:06:36.937Z,101586.83
2019-02-16T04:09:45.224Z,101585.00
2019-02-16T04:12:13.602Z,101577.10
2019-02-16T04:17:48.766Z,101591.64
2019-02-16T04:20:36.721Z,101585.91
2019-02-16T04:23:24.222Z,101580.09
2019-02-16T04:26:11.708Z,101575.18
2019-02-16T04:28:40.099Z,101572.62
2019-02-16T04:31:08.475Z,101567.68
2019-02-16T04:33:36.176Z,101555.52
2019-02-16T04:36:23.675Z,101554.78
2019-02-16T04:41:45.748Z,101555.27
2019-02-16T04:44:14.121Z,101552.22
2019-02-16T04:46:42.494Z,101552.28
2019-02-16T04:49:10.879Z,101546.70
2019-02-16T04:51:39.247Z,101547.64
2019-02-16T04:56:41.209Z,101548.89
2019-02-16T04:59:28.702Z,101554.22
2019-02-16T05:01:57.071Z,101551.38
2019-02-16T05:04:25.466Z,101556.88
2019-02-16T05:07:12.948Z,101553.62
2019-02-16T05:10:00.571Z,101560.79
2019-02-16T05:12:48.065Z,101560.42
2019-02-16T05:15:16.440Z,101557.34
2019-02-16T05:17:44.817Z,101557.52
2019-02-16T05:20:13.188Z,101557.31
2019-02-16T05:23:00.688Z,101559.23
2019-02-16T05:25:29.059Z,101561.76
2019-02-16T05:27:57.449Z,101561.56
2019-02-16T05:30:45.073Z,101557.33
2019-02-16T05:33:13.833Z,101544.02
2019-02-16T05:41:03.439Z,101546.86
2019-02-16T05:43:31.820Z,101548.97
2019-02-16T05:51:22.226Z,101555.19
2019-02-16T05:54:09.943Z,101553.46
2019-02-16T05:59:25.761Z,101539.28
2019-02-16T06:02:34.042Z,101537.93
2019-02-16T06:05:02.422Z,101537.42
2019-02-16T06:07:50.051Z,101535.25
2019-02-16T06:10:18.417Z,101531.10
2019-02-16T06:13:06.041Z,101535.34
2019-02-16T06:15:34.415Z,101539.28
2019-02-16T06:20:50.231Z,101543.02
2019-02-16T06:23:18.610Z,101555.55
2019-02-16T06:25:47.254Z,101552.64
2019-02-16T06:28:15.643Z,101560.48
2019-02-16T06:30:44.009Z,101564.64
2019-02-16T06:33:12.386Z,101563.80
2019-02-16T06:38:15.981Z,101563.09
2019-02-16T06:41:03.598Z,101562.64
2019-02-16T06:43:51.223Z,101558.27
2019-02-16T06:49:26.378Z,101568.19
2019-02-16T06:51:54.752Z,101569.36
2019-02-16T06:54:23.135Z,101571.44
2019-02-16T06:57:10.625Z,101566.34
2019-02-16T06:59:39.013Z,101570.17
2019-02-16T07:02:07.388Z,101569.70
2019-02-16T07:04:35.780Z,101569.94
2019-02-16T07:07:04.153Z,101576.67
2019-02-16T07:09:32.532Z,101582.06
2019-02-16T07:12:00.902Z,101578.95
2019-02-16T07:14:29.284Z,101578.89
2019-02-16T07:22:22.198Z,101589.94
2019-02-16T07:25:09.693Z,101583.09
2019-02-16T07:27:57.182Z,101584.29
2019-02-16T07:33:00.026Z,101597.05
2019-02-16T07:35:47.656Z,101593.86
2019-02-16T07:38:16.039Z,101596.35
2019-02-16T07:41:03.530Z,101610.84
2019-02-16T07:43:51.021Z,101603.56
2019-02-16T07:46:38.536Z,101619.16
2019-02-16T07:49:26.066Z,101624.62
2019-02-16T08:00:13.137Z,101630.22
2019-02-16T08:03:00.648Z,101639.41
2019-02-16T08:05:48.207Z,101640.08
2019-02-16T08:08:35.728Z,101634.17
2019-02-16T08:14:02.216Z,101634.48
2019-02-16T08:19:29.367Z,101622.55
2019-02-16T08:30:28.191Z,101634.78
2019-02-16T08:33:15.693Z,101642.45
2019-02-16T08:36:03.208Z,101640.52
2019-02-16T08:38:50.720Z,101628.42
2019-02-16T08:44:17.775Z,101626.77
2019-02-16T08:47:05.298Z,101627.48
2019-02-16T08:49:52.841Z,101633.61
2019-02-16T08:52:59.685Z,101632.07
2019-02-16T08:55:47.228Z,101626.39
2019-02-16T08:58:34.679Z,101630.30
2019-02-16T09:06:36.737Z,101644.18
2019-02-16T09:09:45.072Z,101633.75
2019-02-16T09:12:32.660Z,101633.81
2019-02-16T09:23:58.900Z,101638.02
2019-02-16T09:26:40.971Z,101635.77
2019-02-16T09:32:17.697Z,101629.23
2019-02-16T09:35:05.385Z,101628.76
2019-02-16T09:40:32.534Z,101636.84
2019-02-16T09:43:20.150Z,101628.41
2019-02-16T09:46:07.750Z,101631.80
2019-02-16T09:48:55.378Z,101645.00
2019-02-16T09:51:43.113Z,101637.53
2019-02-16T09:57:19.753Z,101641.62
2019-02-16T10:00:07.291Z,101640.53
2019-02-16T10:08:09.998Z,101636.98
2019-02-16T10:10:57.575Z,101636.84
2019-02-16T10:13:45.124Z,101643.65
2019-02-16T10:19:21.859Z,101651.19
2019-02-16T10:22:09.515Z,101650.28
2019-02-16T10:24:57.142Z,101652.38
2019-02-16T10:30:19.955Z,101643.34
2019-02-16T10:33:07.628Z,101634.54
2019-02-16T10:35:55.285Z,101630.36
2019-02-16T10:38:43.287Z,101632.38
2019-02-16T10:44:20.308Z,101641.14
2019-02-16T10:47:07.998Z,101632.45
2019-02-16T10:49:55.758Z,101631.28
2019-02-16T10:52:43.630Z,101637.45
2019-02-16T10:55:31.454Z,101639.52
2019-02-16T10:58:19.371Z,101639.98
2019-02-16T11:01:07.128Z,101633.53
2019-02-16T11:03:54.908Z,101634.53
2019-02-16T11:06:42.773Z,101625.73
2019-02-16T11:09:30.542Z,101617.31
2019-02-16T11:12:18.284Z,101615.48
2019-02-16T11:15:06.221Z,101622.92
2019-02-16T11:23:08.272Z,101616.23
2019-02-16T11:25:55.926Z,101617.46
2019-02-16T11:28:43.600Z,101609.30
2019-02-16T11:31:31.208Z,101598.25
2019-02-16T11:36:58.118Z,101596.06
2019-02-16T11:39:45.771Z,101602.40
2019-02-16T11:42:33.399Z,101596.37
2019-02-16T11:45:21.035Z,101594.67
2019-02-16T11:53:33.468Z,101591.98
2019-02-16T11:56:21.082Z,101580.13
2019-02-16T12:01:44.141Z,101584.88
2019-02-16T12:09:42.567Z,101587.58
2019-02-16T12:12:30.230Z,101581.68
2019-02-16T12:15:17.914Z,101570.47
2019-02-16T12:18:05.577Z,101572.52
2019-02-16T12:23:28.438Z,101572.77
2019-02-16T12:26:16.135Z,101572.87
2019-02-16T12:29:03.799Z,101565.25
2019-02-16T12:34:40.563Z,101561.42
2019-02-16T12:40:17.288Z,101567.77
2019-02-16T12:48:33.381Z,101554.83
2019-02-16T12:51:21.038Z,101555.66
2019-02-16T12:54:08.704Z,101557.44
2019-02-16T12:59:31.807Z,101548.13
2019-02-16T13:02:19.451Z,101549.90
2019-02-16T13:05:07.104Z,101548.14
2019-02-16T13:13:23.213Z,101532.55
2019-02-16T13:16:10.779Z,101525.91
2019-02-16T13:18:58.288Z,101534.09
2019-02-16T13:27:00.417Z,101539.24
2019-02-16T13:35:16.193Z,101533.43
2019-02-16T13:40:52.856Z,101520.73
2019-02-16T13:43:40.467Z,101516.35
2019-02-16T13:46:28.101Z,101515.09
2019-02-16T13:49:15.683Z,101518.66
2019-02-16T13:52:03.338Z,101510.90
2019-02-16T13:54:51.015Z,101505.34
2019-02-16T13:57:38.607Z,101499.89
2019-02-16T14:00:47.101Z,101501.33
2019-02-16T14:03:34.771Z,101500.48
2019-02-16T14:06:22.411Z,101496.88
2019-02-16T14:14:38.629Z,101501.35
2019-02-16T14:17:26.137Z,101498.66
2019-02-16T14:19:54.515Z,101499.04
2019-02-16T14:22:42.021Z,101493.31
2019-02-16T14:28:37.992Z,101491.17
2019-02-16T14:31:06.386Z,101488.50
2019-02-16T14:39:16.939Z,101482.63
2019-02-16T14:41:45.328Z,101484.14
2019-02-16T14:44:33.053Z,101486.30
2019-02-16T14:47:01.435Z,101489.19
2019-02-16T14:50:08.188Z,101490.17
2019-02-16T14:52:36.625Z,101489.19
2019-02-16T14:55:52.321Z,101492.84
2019-02-16T14:58:34.128Z,101487.05
2019-02-16T15:04:09.109Z,101489.91
2019-02-16T15:06:37.498Z,101482.88
2019-02-16T15:09:45.808Z,101473.63
2019-02-16T15:17:43.200Z,101479.85
2019-02-16T15:20:51.496Z,101476.94
2019-02-16T15:23:19.885Z,101477.91
2019-02-16T15:26:07.522Z,101472.81
2019-02-16T15:28:55.022Z,101474.53
2019-02-16T15:31:23.418Z,101475.02
2019-02-16T15:33:51.844Z,101471.47
2019-02-16T15:36:24.007Z,101478.26
2019-02-16T15:38:50.332Z,101475.81
2019-02-16T15:41:37.965Z,101475.83
2019-02-16T15:44:06.366Z,101476.80
2019-02-16T15:49:22.193Z,101479.92
2019-02-16T15:51:50.583Z,101478.38
2019-02-16T15:54:38.099Z,101482.46
2019-02-16T15:57:06.490Z,101481.88
2019-02-16T15:59:54.141Z,101470.85
2019-02-16T16:02:22.522Z,101473.87
2019-02-16T16:05:10.016Z,101472.30
2019-02-16T16:10:36.419Z,101466.69
2019-02-16T16:13:43.257Z,101468.91
2019-02-16T16:16:30.756Z,101470.90
2019-02-16T16:19:18.264Z,101469.88
2019-02-16T16:22:25.025Z,101475.52
2019-02-16T16:25:12.521Z,101469.23
2019-02-16T16:28:00.029Z,101464.49
2019-02-16T16:30:47.531Z,101465.45
2019-02-16T16:33:35.037Z,101464.63
2019-02-16T16:36:22.533Z,101461.52
2019-02-16T16:47:19.033Z,101472.06
2019-02-16T16:50:06.533Z,101471.63
2019-02-16T16:52:54.046Z,101475.56
2019-02-16T16:58:30.637Z,101481.28
2019-02-16T17:01:37.385Z,101479.69
2019-02-16T17:04:24.905Z,101482.56
2019-02-16T17:07:12.407Z,101495.67
2019-02-16T17:12:58.085Z,101492.19
2019-02-16T17:15:45.581Z,101491.94
2019-02-16T17:18:33.098Z,101499.70
2019-02-16T17:21:20.589Z,101504.06
2019-02-16T17:24:08.098Z,101504.60
2019-02-16T17:26:55.600Z,101508.27
2019-02-16T17:30:02.360Z,101505.95
2019-02-16T17:32:49.852Z,101509.62
2019-02-16T17:35:37.356Z,101513.90
2019-02-16T17:38:24.861Z,101518.59
2019-02-16T17:41:31.619Z,101519.70
2019-02-16T17:44:19.123Z,101518.78
2019-02-16T17:47:06.619Z,101514.02
2019-02-16T17:49:54.129Z,101511.63
2019-02-16T17:55:30.722Z,101520.06
2019-02-16T18:04:01.886Z,101509.77
2019-02-16T18:06:49.386Z,101512.18
2019-02-16T18:09:36.929Z,101517.72
2019-02-16T18:12:24.397Z,101520.84
2019-02-16T18:17:50.573Z,101526.63
2019-02-16T18:23:16.856Z,101524.87
2019-02-16T18:29:18.269Z,101518.20
2019-02-16T18:37:30.043Z,101515.29
2019-02-16T18:40:36.793Z,101519.80
2019-02-16T18:43:24.295Z,101515.45
2019-02-16T18:46:11.801Z,101520.48
2019-02-16T18:48:59.303Z,101514.63
2019-02-16T18:51:46.810Z,101512.94
2019-02-16T18:54:34.368Z,101504.97
2019-02-16T18:57:21.859Z,101501.27
2019-02-16T19:00:09.386Z,101501.59
2019-02-16T19:02:56.867Z,101502.03
2019-02-16T19:05:44.376Z,101507.46
2019-02-16T19:08:31.869Z,101505.91
2019-02-16T19:11:19.380Z,101510.41
2019-02-16T19:14:06.877Z,101508.08
2019-02-16T19:22:09.117Z,101512.56
2019-02-16T19:24:56.617Z,101507.77
2019-02-16T19:28:04.918Z,101515.04
2019-02-16T19:30:52.453Z,101506.58
2019-02-16T19:33:39.939Z,101508.38
2019-02-16T19:36:27.472Z,101510.84
2019-02-16T19:39:14.971Z,101503.97
2019-02-16T19:42:02.511Z,101508.20
2019-02-16T19:47:39.085Z,101505.34
2019-02-16T19:50:47.374Z,101499.35
2019-02-16T19:53:34.875Z,101503.30
2019-02-16T19:56:22.379Z,101493.93
2019-02-16T19:59:09.877Z,101496.19
2019-02-16T20:01:57.386Z,101506.12
2019-02-16T20:04:44.882Z,101502.48
2019-02-16T20:07:32.383Z,101505.04
2019-02-16T20:10:19.876Z,101503.88
2019-02-16T20:13:07.380Z,101502.95
2019-02-16T20:24:14.389Z,101500.68
2019-02-16T20:27:01.894Z,101507.22
2019-02-16T20:32:57.725Z,101506.31
2019-02-16T20:35:45.219Z,101509.07
2019-02-16T20:41:07.906Z,101516.78
2019-02-16T20:49:09.601Z,101525.92
2019-02-16T20:52:16.360Z,101526.20
2019-02-16T20:55:03.857Z,101522.19
2019-02-16T21:00:30.174Z,101527.36
2019-02-16T21:03:17.677Z,101527.02
2019-02-16T21:08:54.260Z,101526.14
2019-02-16T21:11:41.755Z,101521.23
2019-02-16T21:14:29.275Z,101528.94
2019-02-16T21:17:17.057Z,101528.86
2019-02-16T21:22:56.090Z,101530.98
2019-02-16T21:25:42.856Z,101522.81
2019-02-16T21:28:30.355Z,101525.52
2019-02-16T21:31:18.350Z,101530.75
2019-02-16T21:37:00.465Z,101535.33
2019-02-16T21:39:48.031Z,101533.05
2019-02-16T21:42:54.802Z,101533.20
2019-02-16T21:45:43.822Z,101528.55
2019-02-16T21:54:20.792Z,101523.77
2019-02-16T22:02:52.063Z,101513.67
2019-02-16T22:05:58.822Z,101513.67
2019-02-16T22:11:25.020Z,101503.61
2019-02-16T22:13:53.416Z,101518.92
2019-02-16T22:16:41.042Z,101514.89
2019-02-16T22:19:09.443Z,101514.46
2019-02-16T22:21:37.819Z,101519.25
2019-02-16T22:24:25.548Z,101521.45
2019-02-16T22:26:53.923Z,101521.38
2019-02-16T22:29:41.660Z,101522.03
2019-02-16T22:32:10.045Z,101514.85
2019-02-16T22:34:57.557Z,101512.69
2019-02-16T22:37:25.935Z,101516.23
2019-02-16T22:42:48.172Z,101515.18
2019-02-16T22:48:10.081Z,101516.49
2019-02-16T22:50:39.929Z,101512.55
2019-02-16T22:53:08.572Z,101511.34
2019-02-16T22:55:36.958Z,101509.21
2019-02-16T22:58:28.959Z,101513.92
2019-02-16T23:01:34.696Z,101511.59
2019-02-16T23:06:50.524Z,101512.77
2019-02-16T23:09:38.045Z,101510.60
2019-02-16T23:12:46.335Z,101507.39
2019-02-16T23:18:28.724Z,101516.19
2019-02-16T23:20:57.118Z,101509.05
2019-02-16T23:23:44.749Z,101516.25
2019-02-16T23:26:13.152Z,101514.42
2019-02-16T23:28:41.540Z,101512.50
2019-02-16T23:31:09.932Z,101515.94
2019-02-16T23:33:38.312Z,101517.28
2019-02-16T23:36:25.818Z,101516.33
2019-02-16T23:39:13.444Z,101517.73
2019-02-16T23:42:00.949Z,101520.12
2019-02-16T23:44:29.331Z,101532.16
2019-02-16T23:47:37.629Z,101526.64
2019-02-16T23:50:45.925Z,101528.74
2019-02-16T23:56:01.757Z,101520.30
2019-02-16T23:58:49.655Z,101521.83
